Time;durP1;ratioP1;P1;durP2;ratioP2;P2;SDS_P1;SDS_P2;PMS_P1;PMS_P2;Temp;Humidity;BMP_temperature;BMP_pressure;BME280_temperature;BME280_humidity;BME280_pressure;Samples;Min_cycle;Max_cycle;Signal;HPM_P1;HPM_P2
2023/09/23 00:01:39;;;;;;;10.85;2.78;;;22.60;73.40;;;;;;5091975;28;20073;-51
2023/09/23 00:04:05;;;;;;;17.23;2.72;;;22.60;73.10;;;;;;5092518;28;20012;-50
2023/09/23 00:06:31;;;;;;;12.77;2.50;;;22.50;72.90;;;;;;5107143;28;20020;-47
2023/09/23 00:08:57;;;;;;;11.68;3.33;;;22.60;73.00;;;;;;5096851;28;20144;-52
2023/09/23 00:11:23;;;;;;;12.60;2.50;;;22.60;73.10;;;;;;5103477;28;20035;-50
2023/09/23 00:13:48;;;;;;;12.20;2.90;;;22.60;73.00;;;;;;5106041;28;20403;-49
2023/09/23 00:16:14;;;;;;;14.20;3.33;;;22.50;72.60;;;;;;5099259;28;20514;-50
2023/09/23 00:18:41;;;;;;;14.07;2.85;;;22.50;72.50;;;;;;5100807;28;20446;-47
2023/09/23 00:21:08;;;;;;;8.38;2.30;;;22.60;72.50;;;;;;5103385;28;20106;-47
2023/09/23 00:23:34;;;;;;;9.10;2.60;;;22.50;72.40;;;;;;5102917;28;20102;-49
2023/09/23 00:26:01;;;;;;;8.70;2.30;;;22.50;72.40;;;;;;5104846;28;20051;-50
2023/09/23 00:28:30;;;;;;;7.55;2.60;;;22.50;72.40;;;;;;5100623;28;20110;-47
2023/09/23 00:31:11;;;;;;;5.50;2.13;;;22.50;72.20;;;;;;5084984;28;20024;-47
2023/09/23 00:33:37;;;;;;;5.65;2.30;;;22.50;72.10;;;;;;5092372;28;20036;-50
2023/09/23 00:36:08;;;;;;;7.78;2.60;;;22.50;72.10;;;;;;5080062;28;20115;-47
2023/09/23 00:38:35;;;;;;;10.02;2.92;;;22.50;72.20;;;;;;5099724;28;20028;-50
2023/09/23 00:41:08;;;;;;;7.57;2.60;;;22.50;72.40;;;;;;5091804;28;20059;-47
2023/09/23 00:43:37;;;;;;;8.45;2.47;;;22.50;72.20;;;;;;5092036;28;20035;-47
2023/09/23 00:46:04;;;;;;;5.88;2.20;;;22.50;72.20;;;;;;5091820;28;20495;-47
2023/09/23 00:48:36;;;;;;;7.25;2.10;;;22.50;71.90;;;;;;5087787;28;20455;-50
2023/09/23 00:51:03;;;;;;;5.90;2.17;;;22.40;72.20;;;;;;5087685;28;20028;-48
2023/09/23 00:53:30;;;;;;;4.20;2.17;;;22.40;71.70;;;;;;5102845;28;20081;-49
2023/09/23 00:55:57;;;;;;;8.43;2.08;;;22.40;71.80;;;;;;5099406;28;20410;-47
2023/09/23 00:58:24;;;;;;;7.05;2.20;;;22.40;71.70;;;;;;5096334;28;20027;-47
2023/09/23 01:00:51;;;;;;;6.78;2.22;;;22.40;72.00;;;;;;5059393;28;20039;-54
2023/09/23 01:03:21;;;;;;;4.40;2.17;;;22.40;72.10;;;;;;5097134;28;20069;-53
2023/09/23 01:05:58;;;;;;;6.78;2.10;;;22.40;71.80;;;;;;5090313;28;20069;-47
2023/09/23 01:08:25;;;;;;;5.05;2.10;;;22.40;72.10;;;;;;5091189;28;20043;-53
2023/09/23 01:10:51;;;;;;;5.50;2.08;;;22.40;71.60;;;;;;5091430;28;20031;-51
2023/09/23 01:13:23;;;;;;;6.25;2.42;;;22.40;71.70;;;;;;5091559;28;20028;-49
2023/09/23 01:15:51;;;;;;;6.30;2.10;;;22.40;71.40;;;;;;5075833;28;20052;-50
2023/09/23 01:18:17;;;;;;;7.20;2.13;;;22.40;71.80;;;;;;5084181;28;20077;-54
2023/09/23 01:20:48;;;;;;;5.38;2.00;;;22.40;71.20;;;;;;5100780;28;20028;-54
2023/09/23 01:23:15;;;;;;;6.47;2.20;;;22.40;71.20;;;;;;5104003;28;20031;-53
2023/09/23 01:25:42;;;;;;;4.70;1.77;;;22.40;71.20;;;;;;5078588;28;20035;-54
2023/09/23 01:28:13;;;;;;;5.70;2.20;;;22.40;71.10;;;;;;5082596;28;20035;-54
2023/09/23 01:30:40;;;;;;;4.05;1.67;;;22.40;71.20;;;;;;5102983;28;20024;-53
2023/09/23 01:33:08;;;;;;;6.18;2.22;;;22.40;71.30;;;;;;5095498;28;20036;-50
2023/09/23 01:35:35;;;;;;;7.93;1.98;;;22.40;70.90;;;;;;5077639;28;20039;-53
2023/09/23 01:38:02;;;;;;;4.63;2.00;;;22.40;71.00;;;;;;5102768;28;20036;-52
2023/09/23 01:40:30;;;;;;;4.38;2.10;;;22.40;70.70;;;;;;5084583;28;20153;-51
2023/09/23 01:42:57;;;;;;;9.35;2.17;;;22.40;71.40;;;;;;5102490;28;20051;-49
2023/09/23 01:45:25;;;;;;;5.80;2.00;;;22.40;70.70;;;;;;5100698;28;20111;-51
2023/09/23 01:47:52;;;;;;;5.55;1.90;;;22.40;71.10;;;;;;5104184;28;20502;-47
2023/09/23 01:50:19;;;;;;;2.88;1.55;;;22.40;70.80;;;;;;5088519;28;20391;-52
2023/09/23 01:52:45;;;;;;;7.30;1.73;;;22.40;70.80;;;;;;5104244;28;20024;-52
2023/09/23 01:55:12;;;;;;;6.47;1.85;;;22.40;70.60;;;;;;5088966;28;20031;-52
2023/09/23 01:57:41;;;;;;;4.82;2.33;;;22.40;71.60;;;;;;5095240;28;20116;-51
2023/09/23 02:00:17;;;;;;;5.45;1.70;;;22.40;70.70;;;;;;5087387;28;20020;-54
2023/09/23 02:02:46;;;;;;;4.43;2.00;;;22.40;70.60;;;;;;5104546;28;20032;-48
2023/09/23 02:05:12;;;;;;;5.97;1.70;;;22.40;70.40;;;;;;5102830;28;20399;-50
2023/09/23 02:07:39;;;;;;;8.80;1.67;;;22.30;70.90;;;;;;5102337;28;20050;-51
2023/09/23 02:10:08;;;;;;;2.97;1.80;;;22.30;70.60;;;;;;5087421;28;20102;-51
2023/09/23 02:12:35;;;;;;;4.32;2.00;;;22.30;70.60;;;;;;5086523;28;20035;-49
2023/09/23 02:15:00;;;;;;;3.95;1.88;;;22.30;70.60;;;;;;5101658;28;20035;-47
2023/09/23 02:17:26;;;;;;;8.52;2.00;;;22.30;70.60;;;;;;5076458;28;20032;-52
2023/09/23 02:19:53;;;;;;;5.40;1.80;;;22.30;70.30;;;;;;5093941;28;20488;-51
2023/09/23 02:22:20;;;;;;;4.30;1.83;;;22.30;70.60;;;;;;5103129;28;20073;-51
2023/09/23 02:24:46;;;;;;;3.92;2.00;;;22.30;70.70;;;;;;5084992;28;20746;-54
2023/09/23 02:27:12;;;;;;;4.03;1.73;;;22.30;70.70;;;;;;5088576;28;20054;-50
2023/09/23 02:29:40;;;;;;;3.60;1.65;;;22.20;70.60;;;;;;5104697;28;20479;-47
2023/09/23 02:32:06;;;;;;;5.53;2.05;;;22.30;70.30;;;;;;5101216;28;20487;-49
2023/09/23 02:34:32;;;;;;;4.78;1.75;;;22.20;70.40;;;;;;5083937;28;20016;-47
2023/09/23 02:36:58;;;;;;;4.45;1.90;;;22.30;70.40;;;;;;5093710;28;20136;-47
2023/09/23 02:39:24;;;;;;;3.40;1.73;;;22.20;70.10;;;;;;5082108;28;20032;-48
2023/09/23 02:41:50;;;;;;;3.53;1.75;;;22.20;69.90;;;;;;5101250;28;20024;-49
2023/09/23 02:44:20;;;;;;;7.53;1.60;;;22.20;69.80;;;;;;5101917;28;20059;-53
2023/09/23 02:46:46;;;;;;;2.80;1.50;;;22.20;70.20;;;;;;5097383;28;20047;-49
2023/09/23 02:49:16;;;;;;;2.67;1.58;;;22.20;70.20;;;;;;5103624;28;20067;-50
2023/09/23 02:51:44;;;;;;;6.30;1.60;;;22.20;70.80;;;;;;5085034;28;20074;-49
2023/09/23 02:54:13;;;;;;;4.82;1.45;;;22.20;70.00;;;;;;5083568;28;20062;-51
2023/09/23 02:56:42;;;;;;;6.20;1.50;;;22.20;70.00;;;;;;5103186;28;20016;-49
2023/09/23 02:59:11;;;;;;;5.72;2.00;;;22.20;70.00;;;;;;5105168;28;20102;-49
2023/09/23 03:01:45;;;;;;;6.07;1.60;;;22.20;70.00;;;;;;5103892;28;20102;-53
2023/09/23 03:04:19;;;;;;;4.15;1.75;;;22.20;69.50;;;;;;5094962;28;20483;-51
2023/09/23 03:06:50;;;;;;;2.80;1.73;;;22.20;69.80;;;;;;5103024;28;20027;-49
2023/09/23 03:09:24;;;;;;;4.18;1.70;;;22.10;69.80;;;;;;5104523;28;20076;-52
2023/09/23 03:11:55;;;;;;;3.17;1.30;;;22.10;69.80;;;;;;5084316;28;20027;-54
2023/09/23 03:14:23;;;;;;;3.38;1.63;;;22.10;69.60;;;;;;5074932;28;20535;-47
2023/09/23 03:16:53;;;;;;;2.72;1.45;;;22.20;69.70;;;;;;5075413;28;20043;-50
2023/09/23 03:19:24;;;;;;;3.20;1.77;;;22.10;69.60;;;;;;5099355;28;20534;-47
2023/09/23 03:21:52;;;;;;;4.28;1.63;;;22.20;69.70;;;;;;5105504;28;20103;-53
2023/09/23 03:24:18;;;;;;;2.75;1.70;;;22.20;69.50;;;;;;5086540;28;20032;-49
2023/09/23 03:26:46;;;;;;;5.43;2.00;;;22.10;69.60;;;;;;5102993;28;20406;-50
2023/09/23 03:29:17;;;;;;;5.78;1.48;;;22.10;69.40;;;;;;5081341;28;20039;-53
2023/09/23 03:31:44;;;;;;;2.30;1.40;;;22.10;69.20;;;;;;5100693;28;20506;-53
2023/09/23 03:34:13;;;;;;;3.83;1.50;;;22.10;69.30;;;;;;5104534;28;20012;-47
2023/09/23 03:36:40;;;;;;;4.40;1.52;;;22.10;69.20;;;;;;5075392;28;20129;-54
2023/09/23 03:39:06;;;;;;;4.57;1.50;;;22.10;69.20;;;;;;5069038;28;20050;-52
2023/09/23 03:41:33;;;;;;;3.58;1.48;;;22.10;69.20;;;;;;5095088;28;20016;-48
2023/09/23 03:43:59;;;;;;;2.30;1.20;;;22.10;69.20;;;;;;5085695;28;20023;-48
2023/09/23 03:46:25;;;;;;;3.10;1.40;;;22.10;69.00;;;;;;5078737;28;20626;-49
2023/09/23 03:48:51;;;;;;;3.47;1.42;;;22.10;68.60;;;;;;5074318;28;20037;-52
2023/09/23 03:51:17;;;;;;;2.35;1.25;;;22.10;68.40;;;;;;5080620;28;20023;-51
2023/09/23 03:53:48;;;;;;;3.58;1.50;;;22.20;68.40;;;;;;5095718;28;20106;-51
2023/09/23 03:56:14;;;;;;;1.58;1.20;;;22.20;68.20;;;;;;5086733;28;20111;-49
2023/09/23 03:58:40;;;;;;;2.25;1.48;;;22.20;68.40;;;;;;5103603;28;20107;-50
2023/09/23 04:01:12;;;;;;;2.97;1.38;;;22.20;68.00;;;;;;5086570;28;20031;-48
2023/09/23 04:03:37;;;;;;;3.75;1.42;;;22.20;68.00;;;;;;5086256;28;20028;-47
2023/09/23 04:06:05;;;;;;;2.80;1.65;;;22.20;67.90;;;;;;5101118;28;20027;-51
2023/09/23 04:08:31;;;;;;;3.60;1.23;;;22.20;68.00;;;;;;5084420;28;20023;-48
2023/09/23 04:11:03;;;;;;;2.42;1.65;;;22.20;67.70;;;;;;5090691;28;20020;-48
2023/09/23 04:13:30;;;;;;;5.45;1.98;;;22.20;67.70;;;;;;5089320;28;20064;-48
2023/09/23 04:16:02;;;;;;;2.35;1.48;;;22.20;68.00;;;;;;5096431;28;20032;-47
2023/09/23 04:18:29;;;;;;;3.72;1.88;;;22.20;67.70;;;;;;5103799;28;20028;-46
2023/09/23 04:20:55;;;;;;;3.28;1.80;;;22.20;68.00;;;;;;5100729;28;20028;-47
2023/09/23 04:23:21;;;;;;;4.28;2.10;;;22.20;68.00;;;;;;5082354;28;20023;-48
2023/09/23 04:25:50;;;;;;;4.32;1.60;;;22.20;67.60;;;;;;5107395;28;20452;-46
2023/09/23 04:28:19;;;;;;;3.85;1.52;;;22.10;67.40;;;;;;5099538;28;20047;-47
2023/09/23 04:30:45;;;;;;;3.30;1.60;;;22.20;67.60;;;;;;5101315;28;20043;-50
2023/09/23 04:33:14;;;;;;;4.15;1.75;;;22.20;67.60;;;;;;5103344;28;20024;-49
2023/09/23 04:35:40;;;;;;;3.95;1.65;;;22.10;67.40;;;;;;5102387;28;20076;-49
2023/09/23 04:38:06;;;;;;;6.63;1.92;;;22.10;67.30;;;;;;5092613;28;20042;-48
2023/09/23 04:40:31;;;;;;;7.40;1.60;;;22.10;67.30;;;;;;5099312;28;20479;-49
2023/09/23 04:42:57;;;;;;;2.30;1.40;;;22.10;67.50;;;;;;5099641;28;20064;-51
2023/09/23 04:45:24;;;;;;;4.07;2.20;;;22.10;67.90;;;;;;5098361;28;20028;-48
2023/09/23 04:47:52;;;;;;;3.38;1.50;;;22.10;67.50;;;;;;5101064;28;20030;-48
2023/09/23 04:50:19;;;;;;;6.78;1.98;;;22.10;67.50;;;;;;5096643;28;20089;-47
2023/09/23 04:52:46;;;;;;;3.45;1.70;;;22.10;67.20;;;;;;5100145;28;20033;-48
2023/09/23 04:55:12;;;;;;;2.75;1.75;;;22.10;67.40;;;;;;5100458;28;20056;-49
2023/09/23 04:57:38;;;;;;;4.25;1.77;;;22.00;67.10;;;;;;5104000;28;20070;-47
2023/09/23 05:00:04;;;;;;;4.10;1.80;;;22.10;67.20;;;;;;5099087;28;20027;-50
2023/09/23 05:02:31;;;;;;;2.97;1.48;;;22.10;67.10;;;;;;5098081;28;20028;-49
2023/09/23 05:04:57;;;;;;;4.22;1.77;;;22.00;67.10;;;;;;5102333;28;20491;-47
2023/09/23 05:07:26;;;;;;;3.38;1.63;;;22.00;66.90;;;;;;5098905;28;20042;-50
2023/09/23 05:09:55;;;;;;;2.70;1.67;;;22.00;66.90;;;;;;5080082;28;20465;-47
2023/09/23 05:12:21;;;;;;;4.07;1.80;;;22.10;67.00;;;;;;5100007;28;20063;-48
2023/09/23 05:14:47;;;;;;;3.45;1.58;;;22.00;66.90;;;;;;5079177;28;20028;-52
2023/09/23 05:17:17;;;;;;;4.07;1.63;;;22.00;66.60;;;;;;5099010;28;20111;-54
2023/09/23 05:19:46;;;;;;;3.88;1.77;;;22.00;66.60;;;;;;5099843;28;20553;-53
2023/09/23 05:22:12;;;;;;;7.70;2.00;;;22.00;66.60;;;;;;5102661;28;20027;-51
2023/09/23 05:24:39;;;;;;;6.90;1.98;;;22.00;66.70;;;;;;5102237;28;20027;-53
2023/09/23 05:27:05;;;;;;;3.67;1.70;;;22.00;66.60;;;;;;5099172;28;20061;-54
2023/09/23 05:29:31;;;;;;;3.28;2.03;;;22.00;66.40;;;;;;5091994;22;20049;-55
2023/09/23 05:31:57;;;;;;;6.03;1.60;;;22.00;66.20;;;;;;5073137;28;20024;-53
2023/09/23 05:34:23;;;;;;;2.22;1.40;;;22.00;66.60;;;;;;5082148;28;20030;-55
2023/09/23 05:36:49;;;;;;;3.30;1.75;;;22.00;66.40;;;;;;5080437;28;20411;-53
2023/09/23 05:39:18;;;;;;;6.47;1.90;;;22.00;66.50;;;;;;5071659;28;20100;-50
2023/09/23 05:41:45;;;;;;;3.38;1.75;;;22.00;66.40;;;;;;5078748;28;20046;-49
2023/09/23 05:44:12;;;;;;;3.72;1.50;;;22.00;66.10;;;;;;5076924;28;20023;-55
2023/09/23 05:46:38;;;;;;;5.38;1.67;;;22.00;66.40;;;;;;5079624;28;20113;-52
2023/09/23 05:49:11;;;;;;;2.97;1.73;;;22.00;66.20;;;;;;5084057;28;20387;-53
2023/09/23 05:51:38;;;;;;;3.45;1.67;;;22.00;66.10;;;;;;5077761;28;20021;-55
2023/09/23 05:54:05;;;;;;;2.75;1.30;;;22.00;66.00;;;;;;5082173;28;20016;-49
2023/09/23 05:56:30;;;;;;;2.33;1.33;;;22.00;66.00;;;;;;5077874;28;20555;-53
2023/09/23 05:58:56;;;;;;;3.25;1.45;;;22.00;65.80;;;;;;5080170;28;20160;-56
2023/09/23 06:01:22;;;;;;;2.72;1.50;;;22.00;65.90;;;;;;5077363;28;20025;-53
2023/09/23 06:03:49;;;;;;;3.72;1.60;;;22.00;65.80;;;;;;5077581;28;20024;-55
2023/09/23 06:06:15;;;;;;;2.65;1.70;;;22.00;65.40;;;;;;5079108;28;20024;-55
2023/09/23 06:08:40;;;;;;;4.05;1.95;;;22.00;65.60;;;;;;5077618;28;20035;-54
2023/09/23 06:11:09;;;;;;;4.53;1.75;;;22.00;65.40;;;;;;5081669;28;20103;-53
2023/09/23 06:13:35;;;;;;;4.85;2.10;;;22.00;65.60;;;;;;5065436;28;20491;-54
2023/09/23 06:16:05;;;;;;;4.40;2.35;;;22.00;65.20;;;;;;5076812;28;20027;-52
2023/09/23 06:18:31;;;;;;;3.53;1.92;;;22.00;65.40;;;;;;5084795;28;20039;-52
2023/09/23 06:20:58;;;;;;;3.28;2.00;;;22.00;65.30;;;;;;5080694;28;20079;-53
2023/09/23 06:23:25;;;;;;;7.30;2.28;;;22.00;65.30;;;;;;5080834;28;20035;-53
2023/09/23 06:26:05;;;;;;;3.47;1.70;;;21.90;65.20;;;;;;5081587;28;20024;-52
2023/09/23 06:28:33;;;;;;;3.13;1.90;;;22.00;65.40;;;;;;5078469;28;20028;-54
2023/09/23 06:30:59;;;;;;;5.50;1.98;;;22.00;64.90;;;;;;5084149;28;20031;-54
2023/09/23 06:33:25;;;;;;;3.67;1.52;;;22.00;64.90;;;;;;5085313;28;20491;-53
2023/09/23 06:35:50;;;;;;;4.50;1.75;;;22.00;64.90;;;;;;5082033;28;20027;-48
2023/09/23 06:38:16;;;;;;;3.03;1.63;;;22.00;65.10;;;;;;5081299;28;20484;-55
2023/09/23 06:40:42;;;;;;;4.05;1.63;;;22.00;64.70;;;;;;5078349;28;20437;-55
2023/09/23 06:43:08;;;;;;;3.58;1.70;;;22.00;64.90;;;;;;5082297;28;20443;-54
2023/09/23 06:45:35;;;;;;;5.47;1.70;;;22.00;64.90;;;;;;5079725;28;20027;-47
2023/09/23 06:48:02;;;;;;;4.10;1.92;;;22.00;64.70;;;;;;5084344;28;20020;-50
2023/09/23 06:50:28;;;;;;;3.97;1.67;;;22.00;64.80;;;;;;5083299;28;20032;-52
2023/09/23 06:52:54;;;;;;;5.68;1.73;;;22.00;64.70;;;;;;5087974;28;20486;-54
2023/09/23 06:55:20;;;;;;;3.53;1.88;;;22.00;65.00;;;;;;5081298;28;20029;-54
2023/09/23 06:57:46;;;;;;;4.07;1.60;;;22.00;64.70;;;;;;5082066;28;20032;-49
2023/09/23 07:00:12;;;;;;;2.90;1.30;;;22.00;64.50;;;;;;5084230;28;20028;-55
2023/09/23 07:02:38;;;;;;;3.60;1.52;;;22.00;64.70;;;;;;5079701;28;20073;-50
2023/09/23 07:05:04;;;;;;;4.25;1.60;;;22.00;64.50;;;;;;5084844;28;20024;-54
2023/09/23 07:07:30;;;;;;;4.85;1.88;;;22.00;64.60;;;;;;5084619;28;20111;-50
2023/09/23 07:09:56;;;;;;;4.60;1.70;;;22.10;64.50;;;;;;5081681;28;20444;-54
2023/09/23 07:12:21;;;;;;;5.40;1.80;;;22.00;64.40;;;;;;5079982;28;20503;-55
2023/09/23 07:14:47;;;;;;;3.22;1.55;;;22.00;64.40;;;;;;5080368;28;20028;-52
2023/09/23 07:17:13;;;;;;;8.18;1.60;;;22.00;64.20;;;;;;5079784;28;20109;-54
2023/09/23 07:19:39;;;;;;;4.07;1.60;;;22.00;64.20;;;;;;5077797;28;20066;-54
2023/09/23 07:22:05;;;;;;;3.47;1.50;;;22.00;64.20;;;;;;5079357;28;20028;-55
2023/09/23 07:24:34;;;;;;;4.10;1.40;;;22.00;64.40;;;;;;5072959;28;20020;-55
2023/09/23 07:27:00;;;;;;;5.60;1.90;;;22.00;64.40;;;;;;5072707;28;20472;-54
2023/09/23 07:29:25;;;;;;;4.43;1.52;;;22.10;64.30;;;;;;5072803;28;20044;-52
2023/09/23 07:31:53;;;;;;;4.28;1.42;;;22.10;64.20;;;;;;5072940;28;20028;-51
2023/09/23 07:34:19;;;;;;;5.68;1.60;;;22.10;64.20;;;;;;5072987;28;20098;-55
2023/09/23 07:36:46;;;;;;;4.05;1.50;;;22.00;64.20;;;;;;5072249;28;20480;-55
2023/09/23 07:39:12;;;;;;;4.35;1.48;;;22.10;64.20;;;;;;5071910;28;20060;-52
2023/09/23 07:41:39;;;;;;;6.70;1.65;;;22.10;64.20;;;;;;5072262;28;20036;-48
2023/09/23 07:44:05;;;;;;;7.20;1.63;;;22.10;64.70;;;;;;5075006;28;20016;-57
2023/09/23 07:46:32;;;;;;;3.05;1.30;;;22.10;64.10;;;;;;5072880;28;20033;-57
2023/09/23 07:48:58;;;;;;;5.72;1.45;;;22.20;64.20;;;;;;5072431;28;20031;-51
2023/09/23 07:51:24;;;;;;;10.27;1.80;;;22.20;64.40;;;;;;5072618;28;20392;-54
2023/09/23 07:53:53;;;;;;;6.70;1.70;;;22.20;64.40;;;;;;5072501;28;20381;-57
2023/09/23 07:56:19;;;;;;;4.90;1.60;;;22.20;66.20;;;;;;5076976;28;20028;-58
2023/09/23 07:58:45;;;;;;;5.95;1.60;;;22.20;64.90;;;;;;5072126;28;20263;-55
2023/09/23 08:01:10;;;;;;;6.45;1.77;;;22.20;65.20;;;;;;5072351;28;20035;-58
2023/09/23 08:03:36;;;;;;;7.78;1.48;;;22.20;64.90;;;;;;5072173;28;20059;-57
2023/09/23 08:06:02;;;;;;;6.20;1.67;;;22.20;64.70;;;;;;5072246;28;20074;-52
2023/09/23 08:08:28;;;;;;;7.50;1.55;;;22.20;65.10;;;;;;5080355;28;20020;-52
2023/09/23 08:10:54;;;;;;;5.50;1.35;;;22.20;62.50;;;;;;5091218;28;20020;-54
2023/09/23 08:13:20;;;;;;;4.18;1.42;;;22.20;62.70;;;;;;5079713;28;20035;-55
2023/09/23 08:15:47;;;;;;;2.88;1.00;;;22.20;60.20;;;;;;5082550;28;20036;-54
2023/09/23 08:18:13;;;;;;;3.47;1.10;;;22.10;60.10;;;;;;5092395;28;20498;-55
2023/09/23 08:20:42;;;;;;;6.05;1.48;;;22.10;59.10;;;;;;5092453;28;20114;-55
2023/09/23 08:23:08;;;;;;;4.13;1.13;;;22.00;58.80;;;;;;5083080;28;20023;-55
2023/09/23 08:25:34;;;;;;;12.35;2.10;;;22.10;60.60;;;;;;5088034;28;20471;-52
2023/09/23 08:28:01;;;;;;;6.03;1.20;;;22.00;60.70;;;;;;5081720;28;20043;-55
2023/09/23 08:30:27;;;;;;;7.60;1.48;;;22.00;58.90;;;;;;5076976;28;20119;-56
2023/09/23 08:32:56;;;;;;;9.25;2.33;;;21.90;59.30;;;;;;5082097;28;20102;-55
2023/09/23 08:35:21;;;;;;;8.20;1.77;;;22.00;58.70;;;;;;5092285;28;20102;-52
2023/09/23 08:37:47;;;;;;;17.13;1.92;;;22.00;57.80;;;;;;5091078;28;20166;-50
2023/09/23 08:40:15;;;;;;;8.55;1.30;;;22.00;61.30;;;;;;5082515;28;20036;-55
2023/09/23 08:42:41;;;;;;;7.25;1.70;;;22.00;59.40;;;;;;5080617;28;20391;-55
2023/09/23 08:45:09;;;;;;;16.17;2.30;;;22.00;59.60;;;;;;5092043;28;20026;-55
2023/09/23 08:47:38;;;;;;;8.88;1.67;;;21.90;59.40;;;;;;5092050;28;20111;-54
2023/09/23 08:50:10;;;;;;;8.55;1.50;;;21.70;57.70;;;;;;5091727;28;20032;-53
2023/09/23 08:52:37;;;;;;;9.05;2.03;;;21.80;58.10;;;;;;5073889;28;20032;-52
2023/09/23 08:55:04;;;;;;;21.20;4.63;;;21.80;58.20;;;;;;5071799;28;20498;-53
2023/09/23 08:57:30;;;;;;;176.18;42.28;;;21.90;58.00;;;;;;5071712;28;20509;-54
2023/09/23 08:59:59;;;;;;;90.43;22.70;;;21.90;57.20;;;;;;5067431;28;20040;-55
2023/09/23 09:02:25;;;;;;;58.28;14.55;;;21.90;57.80;;;;;;5079780;28;20024;-52
2023/09/23 09:04:55;;;;;;;231.57;61.53;;;21.80;56.40;;;;;;5071725;28;20024;-54
2023/09/23 09:07:25;;;;;;;164.48;46.05;;;21.90;57.50;;;;;;5075375;28;20032;-52
2023/09/23 09:09:51;;;;;;;;;;;21.90;56.90;;;;;;5071448;28;20393;-56
2023/09/23 09:12:17;;;;;;;108.22;30.48;;;21.90;56.70;;;;;;5071144;28;19908;-53
2023/09/23 09:14:48;;;;;;;57.25;16.33;;;22.00;56.80;;;;;;5071066;28;20488;-54
2023/09/23 09:17:15;;;;;;;56.75;15.70;;;21.90;56.30;;;;;;5070127;28;20116;-54
2023/09/23 09:19:40;;;;;;;59.20;16.52;;;21.90;55.80;;;;;;5072233;28;20021;-54
2023/09/23 09:22:07;;;;;;;49.60;13.30;;;21.90;56.30;;;;;;5083135;28;20020;-56
2023/09/23 09:24:33;;;;;;;49.08;11.73;;;21.90;56.50;;;;;;5084805;28;20388;-56
2023/09/23 09:26:59;;;;;;;41.00;9.02;;;22.00;56.10;;;;;;5078366;28;20025;-56
2023/09/23 09:29:25;;;;;;;43.50;10.38;;;21.90;56.30;;;;;;5076430;28;20054;-56
2023/09/23 09:31:56;;;;;;;38.03;7.90;;;21.90;57.10;;;;;;5068391;28;20020;-52
2023/09/23 09:34:24;;;;;;;46.65;8.80;;;21.90;57.00;;;;;;5078401;28;20035;-56
2023/09/23 09:36:56;;;;;;;28.50;7.47;;;22.00;56.70;;;;;;5086623;28;20020;-55
2023/09/23 09:39:28;;;;;;;21.60;5.60;;;22.00;56.90;;;;;;5090667;28;20035;-60
2023/09/23 09:41:56;;;;;;;19.38;5.93;;;21.90;57.00;;;;;;5070125;28;20066;-55
2023/09/23 09:44:27;;;;;;;20.55;6.35;;;22.00;57.00;;;;;;5052034;28;20028;-50
2023/09/23 09:46:55;;;;;;;17.85;4.65;;;22.00;58.10;;;;;;5066324;28;20028;-56
2023/09/23 09:49:24;;;;;;;16.58;4.85;;;22.00;57.90;;;;;;5068526;28;20117;-53
2023/09/23 09:51:51;;;;;;;17.05;4.28;;;21.90;58.20;;;;;;5070251;28;20025;-55
2023/09/23 09:54:20;;;;;;;11.82;3.50;;;21.90;58.00;;;;;;5072477;28;20028;-55
2023/09/23 09:56:52;;;;;;;9.68;2.88;;;21.90;58.70;;;;;;5070754;28;20028;-55
2023/09/23 09:59:28;;;;;;;11.40;3.00;;;21.90;57.50;;;;;;5070856;28;20395;-55
2023/09/23 10:01:59;;;;;;;9.45;2.92;;;21.90;57.60;;;;;;5072494;28;20056;-55
2023/09/23 10:04:34;;;;;;;20.55;2.70;;;21.90;57.30;;;;;;5073639;28;20027;-57
2023/09/23 10:07:00;;;;;;;24.63;3.22;;;21.90;56.20;;;;;;5074469;28;20024;-55
2023/09/23 10:09:31;;;;;;;13.48;2.67;;;21.90;57.90;;;;;;5074030;28;20028;-56
2023/09/23 10:11:59;;;;;;;16.15;1.90;;;21.90;56.10;;;;;;5074678;28;20028;-57
2023/09/23 10:14:26;;;;;;;7.35;2.30;;;21.90;55.50;;;;;;5074741;28;20391;-55
2023/09/23 10:17:03;;;;;;;10.98;2.38;;;21.90;55.70;;;;;;5074815;28;20054;-56
2023/09/23 10:19:34;;;;;;;4.72;2.03;;;21.90;55.40;;;;;;5073185;28;20032;-56
2023/09/23 10:22:13;;;;;;;7.20;2.20;;;21.80;56.30;;;;;;5074271;28;20086;-56
2023/09/23 10:24:40;;;;;;;5.40;1.98;;;21.80;55.80;;;;;;5074553;28;20496;-56
2023/09/23 10:27:09;;;;;;;6.15;1.80;;;21.80;56.40;;;;;;5074642;28;20021;-53
2023/09/23 10:29:49;;;;;;;3.72;1.73;;;21.80;56.00;;;;;;5072829;28;20119;-55
2023/09/23 10:32:16;;;;;;;;;;;21.80;55.60;;;;;;5074594;28;20067;-53
2023/09/23 10:34:48;;;;;;;5.78;1.83;;;21.80;55.80;;;;;;5074348;28;19908;-56
2023/09/23 10:37:32;;;;;;;4.97;2.00;;;21.80;55.80;;;;;;5073939;28;20024;-52
2023/09/23 10:40:11;;;;;;;3.33;2.08;;;21.70;55.60;;;;;;5073783;28;20488;-55
2023/09/23 10:42:38;;;;;;;;;;;21.70;56.70;;;;;;5074517;28;20400;-56
2023/09/23 10:45:05;;;;;;;3.72;1.90;;;21.70;55.90;;;;;;5074441;28;19931;-56
2023/09/23 10:47:31;;;;;;;3.75;1.98;;;21.70;55.80;;;;;;5057559;28;20400;-53
2023/09/23 10:49:58;;;;;;;4.28;2.10;;;21.70;55.60;;;;;;5074612;28;20025;-48
2023/09/23 10:52:24;;;;;;;2.95;1.67;;;21.70;55.70;;;;;;5074725;28;20033;-56
2023/09/23 10:54:50;;;;;;;5.32;1.70;;;21.70;56.10;;;;;;5073541;28;20034;-56
2023/09/23 10:57:15;;;;;;;4.28;2.00;;;21.70;56.30;;;;;;5073778;28;20393;-55
2023/09/23 10:59:43;;;;;;;5.43;1.88;;;21.70;56.00;;;;;;5072468;28;20064;-56
2023/09/23 11:02:11;;;;;;;11.18;2.10;;;21.70;55.50;;;;;;5073415;28;20034;-55
2023/09/23 11:04:37;;;;;;;4.30;1.70;;;21.60;55.50;;;;;;5073810;28;20038;-57
2023/09/23 11:07:03;;;;;;;5.13;1.65;;;21.60;55.00;;;;;;5073790;28;20488;-56
2023/09/23 11:09:29;;;;;;;3.65;1.75;;;21.60;55.30;;;;;;5073619;28;20025;-53
2023/09/23 11:11:55;;;;;;;7.88;1.60;;;21.60;55.30;;;;;;5073248;28;20031;-56
2023/09/23 11:14:21;;;;;;;11.07;2.17;;;21.60;55.60;;;;;;5073586;28;20055;-54
2023/09/23 11:16:49;;;;;;;6.43;2.35;;;21.60;55.10;;;;;;5073517;28;20064;-56
2023/09/23 11:19:17;;;;;;;5.95;1.90;;;21.60;55.60;;;;;;5072988;28;20024;-56
2023/09/23 11:21:46;;;;;;;6.45;1.50;;;21.60;55.10;;;;;;5072456;28;20024;-56
2023/09/23 11:24:13;;;;;;;15.98;2.53;;;21.60;55.20;;;;;;5071983;28;20025;-56
2023/09/23 11:26:40;;;;;;;10.55;2.33;;;21.60;55.20;;;;;;5073381;28;20161;-51
2023/09/23 11:29:07;;;;;;;12.15;1.90;;;21.60;55.60;;;;;;5100592;22;20007;-53
2023/09/23 11:31:33;;;;;;;8.38;2.30;;;21.50;55.20;;;;;;5098053;28;20083;-51
2023/09/23 11:33:59;;;;;;;15.27;2.50;;;21.50;55.20;;;;;;5093048;28;20036;-50
2023/09/23 11:36:25;;;;;;;8.88;1.98;;;21.60;55.60;;;;;;5093286;28;20024;-53
2023/09/23 11:38:50;;;;;;;6.65;1.80;;;21.60;55.70;;;;;;5093031;28;20304;-52
2023/09/23 11:41:17;;;;;;;7.53;2.30;;;21.60;55.30;;;;;;5075303;28;20055;-46
2023/09/23 11:43:43;;;;;;;8.70;2.30;;;21.60;55.70;;;;;;5093208;28;20107;-46
2023/09/23 11:46:08;;;;;;;15.30;2.28;;;21.70;58.30;;;;;;5092491;28;20103;-50
2023/09/23 11:48:35;;;;;;;11.20;1.90;;;21.70;58.70;;;;;;5102995;28;20123;-47
2023/09/23 11:51:01;;;;;;;6.88;2.03;;;21.80;58.60;;;;;;5108856;28;20027;-47
2023/09/23 11:53:27;;;;;;;7.45;1.65;;;21.80;58.30;;;;;;5108751;28;20034;-51
2023/09/23 11:55:53;;;;;;;7.43;2.08;;;21.80;58.80;;;;;;5108838;28;20028;-49
2023/09/23 11:58:19;;;;;;;10.82;2.00;;;21.80;59.00;;;;;;5113702;27;20028;-50
2023/09/23 12:00:47;;;;;;;5.40;1.50;;;21.80;58.40;;;;;;5112416;28;20069;-50
2023/09/23 12:03:14;;;;;;;7.57;3.20;;;21.80;57.30;;;;;;5111566;28;20502;-49
2023/09/23 12:05:41;;;;;;;4.55;2.00;;;21.70;56.00;;;;;;5112683;27;20038;-48
2023/09/23 12:08:09;;;;;;;12.77;2.58;;;21.50;55.50;;;;;;5112652;28;20020;-51
2023/09/23 12:10:36;;;;;;;6.53;1.95;;;21.60;55.50;;;;;;5113005;28;20115;-47
2023/09/23 12:13:06;;;;;;;4.78;2.15;;;21.60;55.60;;;;;;5112636;28;20031;-50
2023/09/23 12:15:34;;;;;;;5.97;1.88;;;21.60;55.80;;;;;;5105758;28;20039;-52
2023/09/23 12:18:00;;;;;;;5.18;2.30;;;21.70;55.60;;;;;;5108873;27;20047;-53
2023/09/23 12:20:26;;;;;;;4.05;1.85;;;21.70;56.30;;;;;;5112427;28;20391;-53
2023/09/23 12:22:53;;;;;;;5.13;1.70;;;21.70;56.50;;;;;;5112665;28;20027;-52
2023/09/23 12:25:20;;;;;;;4.57;1.95;;;21.80;56.70;;;;;;5112330;28;20395;-51
2023/09/23 12:27:46;;;;;;;6.25;1.88;;;21.80;56.70;;;;;;5112483;28;20029;-51
2023/09/23 12:30:17;;;;;;;7.80;2.30;;;21.70;57.00;;;;;;5112266;28;20039;-49
2023/09/23 12:32:43;;;;;;;6.10;1.70;;;21.70;57.80;;;;;;5112866;28;20030;-49
2023/09/23 12:35:09;;;;;;;3.17;1.65;;;21.80;57.30;;;;;;5112522;28;20023;-48
2023/09/23 12:37:35;;;;;;;4.47;1.95;;;21.80;57.80;;;;;;5112451;28;20031;-49
2023/09/23 12:40:04;;;;;;;2.63;1.80;;;21.70;57.50;;;;;;5111967;28;20093;-47
2023/09/23 12:42:30;;;;;;;6.50;1.70;;;21.70;58.00;;;;;;5112315;28;20331;-50
2023/09/23 12:44:56;;;;;;;2.13;1.60;;;21.70;58.10;;;;;;5112151;28;20019;-46
2023/09/23 12:47:22;;;;;;;6.05;1.73;;;21.70;58.10;;;;;;5112131;28;20131;-48